createdAt,value
2022-11-23T00:00:49.242Z,2.05
2022-11-23T00:03:17.278Z,1.88
2022-11-23T00:05:45.145Z,2.25
2022-11-23T00:08:12.894Z,2.50
2022-11-23T00:10:40.732Z,1.95
2022-11-23T00:13:09.919Z,2.10
2022-11-23T00:15:37.681Z,1.90
2022-11-23T00:18:05.519Z,2.45
2022-11-23T00:20:33.349Z,2.30
2022-11-23T00:23:01.126Z,1.70
2022-11-23T00:25:29.567Z,1.90
2022-11-23T00:27:57.394Z,1.75
2022-11-23T00:30:26.664Z,1.80
2022-11-23T00:32:56.425Z,2.05
2022-11-23T00:35:24.749Z,1.60
2022-11-23T00:37:52.558Z,1.67
2022-11-23T00:40:20.345Z,1.40
2022-11-23T00:42:48.102Z,1.77
2022-11-23T00:45:16.168Z,1.60
2022-11-23T00:47:45.325Z,1.70
2022-11-23T00:50:13.172Z,1.88
2022-11-23T00:52:40.975Z,1.90
2022-11-23T00:55:09.428Z,1.83
2022-11-23T00:57:37.466Z,1.80
2022-11-23T01:00:06.386Z,1.90
2022-11-23T01:02:35.881Z,2.17
2022-11-23T01:05:05.390Z,1.90
2022-11-23T01:07:33.554Z,2.35
2022-11-23T01:10:01.642Z,2.00
2022-11-23T01:12:30.058Z,2.20
2022-11-23T01:14:57.885Z,1.58
2022-11-23T01:17:25.619Z,2.00
2022-11-23T01:19:53.426Z,1.85
2022-11-23T01:22:22.951Z,2.20
2022-11-23T01:24:51.438Z,1.73
2022-11-23T01:27:19.225Z,2.13
2022-11-23T01:29:46.975Z,2.00
2022-11-23T01:32:14.773Z,2.22
2022-11-23T01:34:42.626Z,2.17
2022-11-23T01:37:10.483Z,2.00
2022-11-23T01:39:39.995Z,1.73
2022-11-23T01:42:08.510Z,1.92
2022-11-23T01:44:38.801Z,2.40
2022-11-23T01:47:08.400Z,1.95
2022-11-23T01:49:40.051Z,2.00
2022-11-23T01:52:12.603Z,2.03
2022-11-23T01:54:47.664Z,2.13
2022-11-23T01:57:20.382Z,2.40
2022-11-23T01:59:49.956Z,1.90
2022-11-23T02:02:18.940Z,2.00
2022-11-23T02:04:51.553Z,1.48
2022-11-23T02:07:20.529Z,1.98
2022-11-23T02:09:50.309Z,2.22
2022-11-23T02:12:18.151Z,2.17
2022-11-23T02:14:47.030Z,2.47
2022-11-23T02:17:15.092Z,2.10
2022-11-23T02:19:52.838Z,2.10
2022-11-23T02:22:27.827Z,2.50
2022-11-23T02:24:57.457Z,1.60
2022-11-23T02:27:28.680Z,2.25
2022-11-23T02:30:01.243Z,1.98
2022-11-23T02:32:30.541Z,2.38
2022-11-23T02:39:14.630Z,1.80
2022-11-23T02:41:44.897Z,1.95
2022-11-23T02:44:30.110Z,1.90
2022-11-23T02:46:59.227Z,2.10
2022-11-23T02:49:27.290Z,1.70
2022-11-23T02:51:55.157Z,2.50
2022-11-23T02:54:26.179Z,2.03
2022-11-23T02:56:54.059Z,2.45
2022-11-23T02:59:23.277Z,2.38
2022-11-23T03:01:52.552Z,1.90
2022-11-23T03:04:27.155Z,2.30
2022-11-23T03:06:55.700Z,2.10
2022-11-23T03:09:23.883Z,1.77
2022-11-23T03:11:51.848Z,2.03
2022-11-23T03:14:19.694Z,1.85
2022-11-23T03:16:53.445Z,1.58
2022-11-23T03:19:21.650Z,2.33
2022-11-23T03:21:51.539Z,1.90
2022-11-23T03:24:19.393Z,1.80
2022-11-23T03:26:48.776Z,1.70
2022-11-23T03:29:20.742Z,2.33
2022-11-23T03:31:48.960Z,2.03
2022-11-23T03:34:20.242Z,1.45
2022-11-23T03:36:49.810Z,2.28
2022-11-23T03:39:17.770Z,2.10
2022-11-23T03:41:51.786Z,2.10
2022-11-23T03:44:22.376Z,2.03
2022-11-23T03:46:51.440Z,1.98
2022-11-23T03:49:20.629Z,1.60
2022-11-23T03:51:48.430Z,1.98
2022-11-23T03:54:16.204Z,1.60
2022-11-23T03:56:44.093Z,1.98
2022-11-23T03:59:12.325Z,1.95
2022-11-23T04:01:40.183Z,1.80
2022-11-23T04:04:12.033Z,1.80
2022-11-23T04:07:04.373Z,2.10
2022-11-23T04:09:35.494Z,1.73
2022-11-23T04:12:06.676Z,1.75
2022-11-23T04:14:37.339Z,1.77
2022-11-23T04:17:05.672Z,1.80
2022-11-23T04:19:34.404Z,1.90
2022-11-23T04:22:04.280Z,1.85
2022-11-23T04:24:38.428Z,1.90
2022-11-23T04:27:08.187Z,1.50
2022-11-23T04:29:35.950Z,1.48
2022-11-23T04:32:03.819Z,1.70
2022-11-23T04:34:31.667Z,2.22
2022-11-23T04:37:01.866Z,2.00
2022-11-23T04:39:37.369Z,1.75
2022-11-23T04:42:16.993Z,1.60
2022-11-23T04:44:50.600Z,1.73
2022-11-23T04:47:19.078Z,1.33
2022-11-23T04:49:48.745Z,1.80
2022-11-23T04:52:17.221Z,1.60
2022-11-23T04:54:49.202Z,1.50
2022-11-23T04:57:17.115Z,1.65
2022-11-23T04:59:46.618Z,1.40
2022-11-23T05:02:15.511Z,1.77
2022-11-23T05:04:52.516Z,1.23
2022-11-23T05:07:21.360Z,1.50
2022-11-23T05:09:56.922Z,2.17
2022-11-23T05:12:24.692Z,1.75
2022-11-23T05:14:52.643Z,1.60
2022-11-23T05:17:25.398Z,1.60
2022-11-23T05:19:55.776Z,1.50
2022-11-23T05:22:24.150Z,2.15
2022-11-23T05:24:52.023Z,2.20
2022-11-23T05:27:24.130Z,1.77
2022-11-23T05:29:52.126Z,2.17
2022-11-23T05:32:19.971Z,2.50
2022-11-23T05:34:48.727Z,2.40
2022-11-23T05:37:18.306Z,1.92
2022-11-23T05:40:01.699Z,2.20
2022-11-23T05:42:32.920Z,1.80
2022-11-23T05:45:11.660Z,1.73
2022-11-23T05:47:43.653Z,2.17
2022-11-23T05:50:20.881Z,1.85
2022-11-23T05:52:48.709Z,2.05
2022-11-23T05:55:17.111Z,1.85
2022-11-23T05:57:47.336Z,1.80
2022-11-23T06:00:16.423Z,3.60
2022-11-23T06:05:27.311Z,2.35
2022-11-23T06:07:55.197Z,1.80
2022-11-23T06:10:27.789Z,2.03
2022-11-23T06:13:03.342Z,1.40
2022-11-23T06:15:31.861Z,1.55
2022-11-23T06:18:03.209Z,1.73
2022-11-23T06:20:44.968Z,2.55
2022-11-23T06:23:13.230Z,1.75
2022-11-23T06:25:41.814Z,1.58
2022-11-23T06:28:29.104Z,1.70
2022-11-23T06:31:03.472Z,1.38
2022-11-23T06:33:32.483Z,1.65
2022-11-23T06:36:02.446Z,1.70
2022-11-23T06:38:45.173Z,1.70
2022-11-23T06:41:17.719Z,1.98
2022-11-23T06:43:49.247Z,2.08
2022-11-23T06:46:26.265Z,2.03
2022-11-23T06:48:54.085Z,2.65
2022-11-23T06:51:21.951Z,2.33
2022-11-23T06:53:51.681Z,2.75
2022-11-23T06:56:19.701Z,1.90
2022-11-23T06:58:49.125Z,1.65
2022-11-23T07:01:21.929Z,2.05
2022-11-23T07:03:56.403Z,2.08
2022-11-23T07:06:31.211Z,1.95
2022-11-23T07:09:03.708Z,1.73
2022-11-23T07:11:49.962Z,1.45
2022-11-23T07:14:20.122Z,2.00
2022-11-23T07:16:51.034Z,1.88
2022-11-23T07:19:20.244Z,2.92
2022-11-23T07:21:49.378Z,2.42
2022-11-23T07:24:18.123Z,2.10
2022-11-23T07:26:45.944Z,1.90
2022-11-23T07:29:13.920Z,1.70
2022-11-23T07:31:43.225Z,1.90
2022-11-23T07:34:11.286Z,2.70
2022-11-23T07:36:39.287Z,2.70
2022-11-23T07:39:07.098Z,2.67
2022-11-23T07:41:34.966Z,3.70
2022-11-23T07:44:25.700Z,2.70
2022-11-23T07:46:55.667Z,3.00
2022-11-23T07:49:23.430Z,2.05
2022-11-23T07:51:51.267Z,2.20
2022-11-23T07:54:23.464Z,2.30
2022-11-23T07:56:51.662Z,1.88
2022-11-23T07:59:19.411Z,1.95
2022-11-23T08:01:51.232Z,1.83
2022-11-23T08:04:22.902Z,1.40
2022-11-23T08:06:50.775Z,2.10
2022-11-23T08:09:19.421Z,1.65
2022-11-23T08:11:47.260Z,1.73
2022-11-23T08:14:15.217Z,1.60
2022-11-23T08:16:42.963Z,1.80
2022-11-23T08:19:11.003Z,1.63
2022-11-23T08:21:40.333Z,1.98
2022-11-23T08:24:08.682Z,1.75
2022-11-23T08:26:36.859Z,2.28
2022-11-23T08:29:05.555Z,1.77
2022-11-23T08:31:33.362Z,2.10
2022-11-23T08:34:03.613Z,2.80
2022-11-23T08:36:31.892Z,1.70
2022-11-23T08:39:01.099Z,1.98
2022-11-23T08:41:29.039Z,2.88
2022-11-23T08:43:56.833Z,2.70
2022-11-23T08:46:25.066Z,3.88
2022-11-23T08:48:53.122Z,3.35
2022-11-23T08:51:22.889Z,3.40
2022-11-23T08:53:50.762Z,3.70
2022-11-23T08:56:19.889Z,2.50
2022-11-23T08:58:48.027Z,3.17
2022-11-23T09:01:17.882Z,1.98
2022-11-23T09:03:46.509Z,2.17
2022-11-23T09:06:14.368Z,2.20
2022-11-23T09:08:42.179Z,1.90
2022-11-23T09:11:14.238Z,2.00
2022-11-23T09:13:43.336Z,2.70
2022-11-23T09:16:11.163Z,4.07
2022-11-23T09:18:39.050Z,2.72
2022-11-23T09:21:07.444Z,4.30
2022-11-23T09:23:35.309Z,4.65
2022-11-23T09:26:04.828Z,3.38
2022-11-23T09:28:33.858Z,2.70
2022-11-23T09:31:05.555Z,2.78
2022-11-23T09:33:33.333Z,1.95
2022-11-23T09:36:01.874Z,1.70
2022-11-23T09:38:54.625Z,1.95
2022-11-23T09:41:36.115Z,1.85
2022-11-23T09:44:09.210Z,1.70
2022-11-23T09:46:50.058Z,1.75
2022-11-23T09:49:19.804Z,2.38
2022-11-23T09:51:48.592Z,1.63
2022-11-23T09:54:25.782Z,1.60
2022-11-23T09:57:01.393Z,1.90
2022-11-23T09:59:41.837Z,1.67
2022-11-23T10:02:20.938Z,1.83
2022-11-23T10:04:49.122Z,1.67
2022-11-23T10:07:31.801Z,2.03
2022-11-23T10:10:11.327Z,1.83
2022-11-23T10:12:48.922Z,2.10
2022-11-23T10:15:25.304Z,2.15
2022-11-23T10:18:19.673Z,1.80
2022-11-23T10:21:00.628Z,1.90
2022-11-23T10:23:51.723Z,2.13
2022-11-23T10:26:22.123Z,1.50
2022-11-23T10:28:51.808Z,1.75
2022-11-23T10:31:22.107Z,1.90
2022-11-23T10:33:56.979Z,2.50
2022-11-23T10:36:24.811Z,1.67
2022-11-23T10:38:58.672Z,1.73
2022-11-23T10:41:27.084Z,1.77
2022-11-23T10:44:01.192Z,1.60
2022-11-23T10:46:32.137Z,1.95
2022-11-23T10:52:07.465Z,1.90
2022-11-23T10:54:37.679Z,1.75
2022-11-23T10:57:22.850Z,1.58
2022-11-23T11:00:01.258Z,1.55
2022-11-23T11:02:30.791Z,1.55
2022-11-23T11:05:16.443Z,1.67
2022-11-23T11:07:45.781Z,2.22
2022-11-23T11:10:35.357Z,2.60
2022-11-23T11:13:03.858Z,2.17
2022-11-23T11:15:31.678Z,2.08
2022-11-23T11:18:00.809Z,2.10
2022-11-23T11:20:35.163Z,1.65
2022-11-23T11:23:17.172Z,1.27
2022-11-23T11:25:45.610Z,1.63
2022-11-23T11:28:23.683Z,1.55
2022-11-23T11:31:04.173Z,1.88
2022-11-23T11:33:42.128Z,2.15
2022-11-23T11:36:13.165Z,1.80
2022-11-23T11:39:07.764Z,1.45
2022-11-23T11:41:35.131Z,1.80
2022-11-23T11:44:09.626Z,1.67
2022-11-23T11:46:42.879Z,1.63
2022-11-23T11:49:16.608Z,1.67
2022-11-23T11:51:49.224Z,1.40
2022-11-23T11:54:25.747Z,1.50
2022-11-23T11:56:56.883Z,1.60
2022-11-23T11:59:30.516Z,1.70
2022-11-23T12:02:09.042Z,1.60
2022-11-23T12:04:42.544Z,1.73
2022-11-23T12:07:15.671Z,1.80
2022-11-23T12:09:49.499Z,1.77
2022-11-23T12:12:19.440Z,1.73
2022-11-23T12:14:47.762Z,1.48
2022-11-23T12:17:36.529Z,1.40
2022-11-23T12:20:17.403Z,1.30
2022-11-23T12:22:59.613Z,1.73
2022-11-23T12:25:36.711Z,1.88
2022-11-23T12:28:19.279Z,1.58
2022-11-23T12:30:54.008Z,1.67
2022-11-23T12:33:44.703Z,1.65
2022-11-23T12:36:27.672Z,1.35
2022-11-23T12:38:57.079Z,1.13
2022-11-23T12:41:36.419Z,1.02
2022-11-23T12:44:35.268Z,1.27
2022-11-23T12:47:16.026Z,1.10
2022-11-23T12:49:52.014Z,1.17
2022-11-23T12:52:34.781Z,1.17
2022-11-23T12:55:19.791Z,1.55
2022-11-23T12:57:56.300Z,1.00
2022-11-23T13:00:25.832Z,1.60
2022-11-23T13:03:32.436Z,0.90
2022-11-23T13:06:44.041Z,1.23
2022-11-23T13:09:40.724Z,1.15
2022-11-23T13:14:55.131Z,1.67
2022-11-23T13:17:33.509Z,1.92
2022-11-23T13:20:16.099Z,1.65
2022-11-23T13:22:46.057Z,1.33
2022-11-23T13:25:23.934Z,1.73
2022-11-23T13:28:00.718Z,3.10
2022-11-23T13:30:59.187Z,2.25
2022-11-23T13:33:31.797Z,1.45
2022-11-23T13:38:42.865Z,0.95
2022-11-23T13:41:53.500Z,1.75
2022-11-23T13:47:05.018Z,2.22
2022-11-23T13:49:41.894Z,1.70
2022-11-23T13:52:31.164Z,1.85
2022-11-23T13:55:09.818Z,1.10
2022-11-23T13:57:39.452Z,2.25
2022-11-23T14:00:45.143Z,2.60
2022-11-23T14:03:55.779Z,1.60
2022-11-23T14:06:37.718Z,1.60
2022-11-23T14:09:12.383Z,1.10
2022-11-23T14:11:52.376Z,1.10
2022-11-23T14:14:23.703Z,1.50
2022-11-23T14:17:12.499Z,1.10
2022-11-23T14:20:00.987Z,1.45
2022-11-23T14:22:41.041Z,1.70
2022-11-23T14:25:28.508Z,2.63
2022-11-23T14:28:06.339Z,2.35
2022-11-23T14:30:45.506Z,2.10
2022-11-23T14:33:25.456Z,1.98
2022-11-23T14:36:04.006Z,1.95
2022-11-23T14:38:58.207Z,1.55
2022-11-23T14:41:29.442Z,1.20
2022-11-23T14:44:01.182Z,2.08
2022-11-23T14:46:29.195Z,1.77
2022-11-23T14:49:05.692Z,1.52
2022-11-23T14:51:36.686Z,2.00
2022-11-23T14:54:10.502Z,2.70
2022-11-23T14:56:43.823Z,1.75
2022-11-23T14:59:22.327Z,1.83
2022-11-23T15:01:53.577Z,2.13
2022-11-23T15:04:27.113Z,2.40
2022-11-23T15:07:01.920Z,1.30
2022-11-23T15:09:51.272Z,1.83
2022-11-23T15:12:23.531Z,2.95
2022-11-23T15:14:52.273Z,3.22
2022-11-23T15:17:22.488Z,3.05
2022-11-23T15:19:57.903Z,2.58
2022-11-23T15:22:28.737Z,2.40
2022-11-23T15:25:08.257Z,2.78
2022-11-23T15:27:41.217Z,2.05
2022-11-23T15:30:17.391Z,1.88
2022-11-23T15:32:45.698Z,2.20
2022-11-23T15:35:16.720Z,2.40
2022-11-23T15:37:48.364Z,2.08
2022-11-23T15:40:18.814Z,2.63
2022-11-23T15:45:35.664Z,4.32
2022-11-23T15:48:05.630Z,4.65
2022-11-23T15:50:34.541Z,3.10
2022-11-23T15:53:04.077Z,3.42
2022-11-23T15:55:32.152Z,4.00
2022-11-23T15:58:10.108Z,4.32
2022-11-23T16:00:38.236Z,3.97
2022-11-23T16:03:33.233Z,3.28
2022-11-23T16:06:17.333Z,2.60
2022-11-23T16:08:47.017Z,2.65
2022-11-23T16:11:30.952Z,4.68
2022-11-23T16:14:16.563Z,3.45
2022-11-23T16:16:46.596Z,2.63
2022-11-23T16:19:24.530Z,3.15
2022-11-23T16:22:02.009Z,3.60
2022-11-23T16:24:34.057Z,3.47
2022-11-23T16:27:03.360Z,2.72
2022-11-23T16:29:36.088Z,3.97
2022-11-23T16:32:07.031Z,4.53
2022-11-23T16:34:35.438Z,5.47
2022-11-23T16:37:04.602Z,5.43
2022-11-23T16:39:33.778Z,6.18
2022-11-23T16:42:01.787Z,6.32
2022-11-23T16:44:31.235Z,8.50
2022-11-23T16:47:21.579Z,8.77
2022-11-23T16:49:53.134Z,6.85
2022-11-23T16:52:22.648Z,5.95
2022-11-23T16:54:53.469Z,5.43
2022-11-23T16:57:28.715Z,5.93
2022-11-23T16:59:57.029Z,5.35
2022-11-23T17:02:25.366Z,5.57
2022-11-23T17:04:53.253Z,5.63
2022-11-23T17:07:21.191Z,5.10
2022-11-23T17:09:49.069Z,4.43
2022-11-23T17:12:20.743Z,6.70
2022-11-23T17:14:50.476Z,8.52
2022-11-23T17:17:22.020Z,6.43
2022-11-23T17:19:51.174Z,5.70
2022-11-23T17:22:19.969Z,7.25
2022-11-23T17:24:48.532Z,7.85
2022-11-23T17:27:21.327Z,8.68
2022-11-23T17:29:56.331Z,7.80
2022-11-23T17:32:55.231Z,8.55
2022-11-23T17:35:22.566Z,6.72
2022-11-23T17:37:50.346Z,6.65
2022-11-23T17:40:19.879Z,8.05
2022-11-23T17:42:49.534Z,8.83
2022-11-23T17:45:18.024Z,7.70
2022-11-23T17:47:46.564Z,7.68
2022-11-23T17:50:19.378Z,6.90
2022-11-23T17:52:47.714Z,5.55
2022-11-23T17:55:16.880Z,3.67
2022-11-23T17:57:44.698Z,3.35
2022-11-23T18:00:18.628Z,4.15
2022-11-23T18:02:46.553Z,4.93
2022-11-23T18:05:20.902Z,5.07
2022-11-23T18:07:49.844Z,4.60
2022-11-23T18:10:18.124Z,5.53
2022-11-23T18:12:46.744Z,4.78
2022-11-23T18:15:16.311Z,4.95
2022-11-23T18:17:44.181Z,5.10
2022-11-23T18:20:13.419Z,4.22
2022-11-23T18:22:41.248Z,5.13
2022-11-23T18:25:10.079Z,5.40
2022-11-23T18:27:41.903Z,5.20
2022-11-23T18:30:10.883Z,5.28
2022-11-23T18:32:40.056Z,4.40
2022-11-23T18:35:09.059Z,3.97
2022-11-23T18:37:36.888Z,3.72
2022-11-23T18:40:05.204Z,4.20
2022-11-23T18:42:33.082Z,3.60
2022-11-23T18:45:01.256Z,3.70
2022-11-23T18:47:29.136Z,3.10
2022-11-23T18:50:02.078Z,3.35
2022-11-23T18:52:33.902Z,3.63
2022-11-23T18:55:01.649Z,3.10
2022-11-23T18:57:30.152Z,2.65
2022-11-23T18:59:58.766Z,3.70
2022-11-23T19:02:27.840Z,3.90
2022-11-23T19:04:55.859Z,3.90
2022-11-23T19:07:27.091Z,3.60
2022-11-23T19:09:55.566Z,3.15
2022-11-23T19:12:23.605Z,3.20
2022-11-23T19:14:51.400Z,3.80
2022-11-23T19:17:19.347Z,3.40
2022-11-23T19:19:47.148Z,4.03
2022-11-23T19:22:15.100Z,3.85
2022-11-23T19:24:44.328Z,3.92
2022-11-23T19:27:12.180Z,3.38
2022-11-23T19:29:40.044Z,4.00
2022-11-23T19:32:07.964Z,4.20
2022-11-23T19:34:36.010Z,3.60
2022-11-23T19:37:03.818Z,3.95
2022-11-23T19:39:31.872Z,3.95
2022-11-23T19:42:01.366Z,3.58
2022-11-23T19:44:29.360Z,3.38
2022-11-23T19:46:57.325Z,3.72
2022-11-23T19:49:25.156Z,3.30
2022-11-23T19:51:53.735Z,4.28
2022-11-23T19:54:21.657Z,3.67
2022-11-23T19:56:50.707Z,3.85
2022-11-23T19:59:19.846Z,3.63
2022-11-23T20:01:48.036Z,3.63
2022-11-23T20:04:15.916Z,3.80
2022-11-23T20:06:43.737Z,3.28
2022-11-23T20:09:13.436Z,3.35
2022-11-23T20:11:44.754Z,3.50
2022-11-23T20:14:15.346Z,3.13
2022-11-23T20:16:44.491Z,3.78
2022-11-23T20:19:12.555Z,2.95
2022-11-23T20:21:40.423Z,0.10
2022-11-23T20:24:12.160Z,0.80
2022-11-23T20:26:41.108Z,0.30
2022-11-23T20:29:10.025Z,0.17
2022-11-23T20:31:38.527Z,0.00
2022-11-23T20:34:10.720Z,0.45
2022-11-23T20:36:41.049Z,0.10
2022-11-23T20:39:11.906Z,0.20
2022-11-23T20:41:39.822Z,0.10
2022-11-23T20:44:11.608Z,0.10
2022-11-23T20:49:29.801Z,0.10
2022-11-23T20:51:57.550Z,0.10
2022-11-23T20:54:25.436Z,0.10
2022-11-23T20:56:53.232Z,0.10
2022-11-23T20:59:21.086Z,0.10
2022-11-23T21:01:48.912Z,0.00
2022-11-23T21:04:16.946Z,0.10
2022-11-23T21:06:46.089Z,0.10
2022-11-23T21:09:13.888Z,0.10
2022-11-23T21:11:59.379Z,0.10
2022-11-23T21:14:30.513Z,0.00
2022-11-23T21:17:00.323Z,0.10
2022-11-23T21:19:29.484Z,0.10
2022-11-23T21:21:59.652Z,0.10
2022-11-23T21:24:27.610Z,0.10
2022-11-23T21:26:55.555Z,0.10
2022-11-23T21:29:23.812Z,0.10
2022-11-23T21:31:51.978Z,0.08
2022-11-23T21:34:21.805Z,0.10
2022-11-23T21:36:49.910Z,0.60
2022-11-23T21:39:20.050Z,0.10
2022-11-23T21:41:49.871Z,0.52
2022-11-23T21:44:18.363Z,0.10
2022-11-23T21:46:46.507Z,0.10
2022-11-23T21:49:14.235Z,0.10
2022-11-23T21:51:42.740Z,0.10
2022-11-23T21:54:14.097Z,0.10
2022-11-23T21:56:44.358Z,0.10
2022-11-23T21:59:12.495Z,0.10
2022-11-23T22:01:40.875Z,0.10
2022-11-23T22:04:11.218Z,0.20
2022-11-23T22:06:40.108Z,0.10
2022-11-23T22:09:09.330Z,0.10
2022-11-23T22:11:41.127Z,0.10
2022-11-23T22:14:12.743Z,0.10
2022-11-23T22:16:42.745Z,0.00
2022-11-23T22:19:11.722Z,0.10
2022-11-23T22:21:41.165Z,0.10
2022-11-23T22:24:12.973Z,0.05
2022-11-23T22:26:41.039Z,0.10
2022-11-23T22:29:12.084Z,0.00
2022-11-23T22:31:40.521Z,0.10
2022-11-23T22:34:11.673Z,0.10
2022-11-23T22:36:39.590Z,0.10
2022-11-23T22:39:08.434Z,0.10
2022-11-23T22:41:37.912Z,0.20
2022-11-23T22:44:07.844Z,0.00
2022-11-23T22:46:37.902Z,0.10
2022-11-23T22:49:06.240Z,0.10
2022-11-23T22:51:34.129Z,0.10
2022-11-23T22:54:02.424Z,0.00
2022-11-23T22:56:31.565Z,0.10
2022-11-23T22:59:00.180Z,0.10
2022-11-23T23:01:29.837Z,0.10
2022-11-23T23:04:01.272Z,0.10
2022-11-23T23:06:31.259Z,0.00
2022-11-23T23:09:01.233Z,0.10
2022-11-23T23:11:30.430Z,0.10
2022-11-23T23:13:58.727Z,0.03
2022-11-23T23:16:27.666Z,0.10
2022-11-23T23:18:56.577Z,0.10
2022-11-23T23:21:27.263Z,0.55
2022-11-23T23:23:57.054Z,0.10
2022-11-23T23:26:27.116Z,0.10
2022-11-23T23:28:56.249Z,0.20
2022-11-23T23:31:25.070Z,0.10
2022-11-23T23:33:53.837Z,0.10
2022-11-23T23:36:23.053Z,0.10
2022-11-23T23:38:52.436Z,0.10
2022-11-23T23:41:20.445Z,0.10
2022-11-23T23:43:48.850Z,0.10
2022-11-23T23:46:17.140Z,0.17
2022-11-23T23:48:44.936Z,0.00
2022-11-23T23:51:14.586Z,0.10
2022-11-23T23:53:43.062Z,0.10
2022-11-23T23:56:16.858Z,0.10
2022-11-23T23:58:45.320Z,0.10
